Time;durP1;ratioP1;P1;durP2;ratioP2;P2;SDS_P1;SDS_P2;PMS_P1;PMS_P2;Temp;Humidity;BMP_temperature;BMP_pressure;BME280_temperature;BME280_humidity;BME280_pressure;Samples;Min_cycle;Max_cycle;Signal;HPM_P1;HPM_P2
2022/03/02 00:00:34;;;;;;;;;;;;;;;-0.47;46.30;93428.22;2051065;69;20046;-72
2022/03/02 00:03:00;;;;;;;;;;;;;;;-0.43;45.12;93434.97;2050917;69;20050;-69
2022/03/02 00:05:27;;;;;;;;;;;;;;;-0.24;44.00;93431.47;2050928;69;20046;-71
2022/03/02 00:07:53;;;;;;;;;;;;;;;-0.33;44.85;93430.56;2050606;69;20145;-70
2022/03/02 00:10:19;;;;;;;;;;;;;;;-0.48;45.69;93432.28;2051179;69;20193;-70
2022/03/02 00:12:45;;;;;;;;;;;;;;;-0.51;44.97;93436.81;2051196;69;20500;-69
2022/03/02 00:15:10;;;;;;;;;;;;;;;-0.45;46.33;93434.00;2051447;70;20513;-69
2022/03/02 00:17:36;;;;;;;;;;;;;;;-0.55;44.86;93433.59;2050666;70;20158;-71
2022/03/02 00:20:03;;;;;;;;;;;;;;;-0.43;46.38;93440.50;2051448;69;20046;-69
2022/03/02 00:22:29;;;;;;;;;;;;;;;-0.45;45.67;93439.53;2050310;69;20399;-70
2022/03/02 00:24:55;;;;;;;;;;;;;;;-0.54;45.27;93433.09;2050922;70;20058;-75
2022/03/02 00:27:25;;;;;;;;;;;;;;;-0.41;44.46;93429.69;2051279;70;20150;-73
2022/03/02 00:29:52;;;;;;;;;;;;;;;-0.56;45.35;93429.34;2051866;69;20402;-69
2022/03/02 00:32:18;;;;;;;;;;;;;;;-0.52;45.84;93438.09;2051015;69;20102;-69
2022/03/02 00:34:43;;;;;;;;;;;;;;;-0.40;44.43;93419.34;2063438;69;20058;-70
2022/03/02 00:37:14;;;;;;;;;;;;;;;-0.26;43.42;93424.44;2051699;70;20057;-69
2022/03/02 00:39:40;;;;;;;;;;;;;;;-0.51;45.08;93417.47;2050394;69;20098;-70
2022/03/02 00:42:06;;;;;;;;;;;;;;;-0.68;45.49;93422.47;2051137;69;20042;-70
2022/03/02 00:44:33;;;;;;;;;;;;;;;-0.88;46.76;93413.34;2050544;70;20098;-70
2022/03/02 00:47:00;;;;;;;;;;;;;;;-0.86;46.47;93421.16;2050932;70;20153;-69
2022/03/02 00:49:27;;;;;;;;;;;;;;;-0.51;45.15;93417.47;2050848;70;20043;-71
2022/03/02 00:51:56;;;;;;;;;;;;;;;-0.57;44.73;93414.03;2063226;69;20429;-70
2022/03/02 00:54:23;;;;;;;;;;;;;;;-0.39;43.90;93410.53;2050708;69;20058;-72
2022/03/02 00:56:50;;;;;;;;;;;;;;;-0.45;44.57;93414.66;2050985;69;20533;-73
2022/03/02 00:59:16;;;;;;;;;;;;;;;-0.39;43.57;93412.53;2051234;69;20058;-72
2022/03/02 01:01:42;;;;;;;;;;;;;;;-0.24;42.49;93401.78;2051188;70;20177;-69
2022/03/02 01:04:08;;;;;;;;;;;;;;;-0.09;41.43;93396.53;2050787;70;20193;-68
2022/03/02 01:06:34;;;;;;;;;;;;;;;-0.40;42.58;93403.50;2051713;70;20078;-68
2022/03/02 01:09:01;;;;;;;;;;;;;;;-0.28;41.24;93399.28;2051965;69;20119;-70
2022/03/02 01:11:27;;;;;;;;;;;;;;;-0.69;43.87;93396.81;2050166;69;20426;-68
2022/03/02 01:13:52;;;;;;;;;;;;;;;-0.62;43.24;93390.69;2049651;69;20050;-72
2022/03/02 01:16:18;;;;;;;;;;;;;;;-0.47;42.78;93381.94;2051579;70;20096;-70
2022/03/02 01:18:43;;;;;;;;;;;;;;;-0.38;42.45;93389.88;2050503;70;20196;-69
2022/03/02 01:21:09;;;;;;;;;;;;;;;-0.68;43.81;93387.25;2051788;70;20058;-70
2022/03/02 01:23:34;;;;;;;;;;;;;;;-0.86;44.18;93394.25;2050086;70;20050;-69
2022/03/02 01:26:00;;;;;;;;;;;;;;;-0.77;44.23;93396.66;2063288;69;20058;-68
2022/03/02 01:28:26;;;;;;;;;;;;;;;-0.64;43.89;93392.47;2050861;70;20480;-70
2022/03/02 01:30:51;;;;;;;;;;;;;;;-0.50;42.43;93383.00;2050832;69;20049;-69
2022/03/02 01:33:17;;;;;;;;;;;;;;;-0.57;43.67;93383.59;2050431;69;20061;-71
2022/03/02 01:35:43;;;;;;;;;;;;;;;-0.51;43.91;93387.03;2050056;69;20463;-70
2022/03/02 01:38:08;;;;;;;;;;;;;;;-0.60;43.23;93368.78;2050775;69;20120;-72
2022/03/02 01:40:34;;;;;;;;;;;;;;;-0.59;42.38;93364.03;2050578;69;20141;-69
2022/03/02 01:42:59;;;;;;;;;;;;;;;-0.35;41.73;93366.72;2050570;70;20550;-68
2022/03/02 01:45:25;;;;;;;;;;;;;;;-0.43;42.05;93362.28;2050498;70;20538;-69
2022/03/02 01:47:50;;;;;;;;;;;;;;;-0.59;43.16;93352.97;2050353;69;20170;-68
2022/03/02 01:50:16;;;;;;;;;;;;;;;-0.69;43.80;93352.56;2062872;69;20495;-72
2022/03/02 01:52:42;;;;;;;;;;;;;;;-1.05;45.19;93355.50;2064279;69;21560;-69
2022/03/02 01:55:08;;;;;;;;;;;;;;;-0.81;44.08;93354.72;2050079;70;20139;-72
2022/03/02 01:57:34;;;;;;;;;;;;;;;-0.75;43.61;93357.41;2050799;70;20134;-70
2022/03/02 02:00:00;;;;;;;;;;;;;;;-0.87;44.42;93347.75;2050369;69;20058;-71
2022/03/02 02:02:26;;;;;;;;;;;;;;;-0.76;43.77;93355.94;2049984;69;20124;-69
2022/03/02 02:04:53;;;;;;;;;;;;;;;-0.73;42.80;93343.84;2050436;70;20142;-68
2022/03/02 02:07:21;;;;;;;;;;;;;;;-0.73;42.56;93348.59;2050805;69;20502;-69
2022/03/02 02:09:46;;;;;;;;;;;;;;;-0.92;44.24;93346.56;2049998;70;20065;-72
2022/03/02 02:12:12;;;;;;;;;;;;;;;-1.02;44.85;93346.16;2063907;69;20046;-68
2022/03/02 02:14:38;;;;;;;;;;;;;;;-0.87;44.15;93340.22;2050269;70;20089;-68
2022/03/02 02:17:03;;;;;;;;;;;;;;;-0.89;44.34;93334.47;2050169;70;20559;-68
2022/03/02 02:19:29;;;;;;;;;;;;;;;-0.79;43.51;93335.59;2049252;69;20454;-69
2022/03/02 02:21:54;;;;;;;;;;;;;;;-0.81;42.85;93337.41;2050536;70;20078;-68
2022/03/02 02:24:20;;;;;;;;;;;;;;;-1.02;44.27;93331.59;2049664;70;20080;-68
2022/03/02 02:26:45;;;;;;;;;;;;;;;-0.93;43.58;93339.53;2050734;70;20419;-69
2022/03/02 02:29:11;;;;;;;;;;;;;;;-0.85;42.63;93331.41;2050757;70;20200;-69
2022/03/02 02:31:37;;;;;;;;;;;;;;;-1.47;45.44;93334.84;2050862;70;20051;-68
2022/03/02 02:34:05;;;;;;;;;;;;;;;-1.20;44.66;93332.31;2050423;70;20043;-70
2022/03/02 02:36:31;;;;;;;;;;;;;;;-1.05;43.95;93338.19;2050273;69;20473;-71
2022/03/02 02:38:57;;;;;;;;;;;;;;;-0.97;43.54;93346.63;2050085;70;20043;-68
2022/03/02 02:41:23;;;;;;;;;;;;;;;-1.23;44.45;93352.72;2063197;69;20054;-69
2022/03/02 02:43:48;;;;;;;;;;;;;;;-1.37;45.22;93349.81;2050754;69;20105;-69
2022/03/02 02:46:14;;;;;;;;;;;;;;;-1.25;44.86;93358.72;2050864;70;20053;-68
2022/03/02 02:48:39;;;;;;;;;;;;;;;-1.39;45.10;93360.63;2050680;69;20051;-71
2022/03/02 02:51:06;;;;;;;;;;;;;;;-1.24;44.70;93356.72;2049955;70;20039;-68
2022/03/02 02:53:31;;;;;;;;;;;;;;;-1.40;45.22;93350.84;2050482;69;20085;-67
2022/03/02 02:55:57;;;;;;;;;;;;;;;-1.43;44.96;93351.88;2049400;70;20775;-69
2022/03/02 02:58:22;;;;;;;;;;;;;;;-1.33;45.70;93346.75;2049044;70;20139;-70
2022/03/02 03:00:49;;;;;;;;;;;;;;;-1.34;45.17;93337.72;2050616;70;20090;-71
2022/03/02 03:03:15;;;;;;;;;;;;;;;-1.27;44.04;93311.56;2050362;69;20226;-71
2022/03/02 03:05:41;;;;;;;;;;;;;;;-1.37;44.63;93297.34;2050203;69;20055;-69
2022/03/02 03:08:08;;;;;;;;;;;;;;;-1.44;44.47;93272.31;2050566;69;20515;-71
2022/03/02 03:10:33;;;;;;;;;;;;;;;-1.20;43.73;93271.53;2050369;69;20051;-74
2022/03/02 03:12:59;;;;;;;;;;;;;;;-0.96;41.04;93259.66;2063467;69;20160;-69
2022/03/02 03:15:25;;;;;;;;;;;;;;;-0.89;40.43;93259.81;2050609;70;20050;-71
2022/03/02 03:17:51;;;;;;;;;;;;;;;-0.75;40.07;93282.75;2050637;69;20102;-70
2022/03/02 03:20:18;;;;;;;;;;;;;;;-1.13;43.27;93274.47;2051120;69;20047;-71
2022/03/02 03:22:44;;;;;;;;;;;;;;;-1.43;43.52;93290.38;2063945;69;20062;-69
2022/03/02 03:25:11;;;;;;;;;;;;;;;-1.24;42.62;93285.63;2050109;70;20050;-69
2022/03/02 03:27:37;;;;;;;;;;;;;;;-1.29;43.31;93289.22;2050049;69;20576;-70
2022/03/02 03:30:06;;;;;;;;;;;;;;;-1.16;42.29;93296.84;2050889;69;20095;-69
2022/03/02 03:32:32;;;;;;;;;;;;;;;-0.99;41.74;93299.44;2060154;69;20045;-69
2022/03/02 03:34:59;;;;;;;;;;;;;;;-1.43;43.38;93304.19;2050698;70;20046;-70
2022/03/02 03:37:24;;;;;;;;;;;;;;;-1.97;46.41;93294.69;2050595;69;20212;-71
2022/03/02 03:39:49;;;;;;;;;;;;;;;-1.63;44.77;93302.63;2050168;70;20134;-70
2022/03/02 03:42:15;;;;;;;;;;;;;;;-1.72;45.71;93303.72;2050770;69;20473;-69
2022/03/02 03:44:41;;;;;;;;;;;;;;;-1.39;42.74;93297.09;2050577;70;20039;-70
2022/03/02 03:47:07;;;;;;;;;;;;;;;-1.54;43.60;93305.06;2049843;70;20043;-69
2022/03/02 03:49:33;;;;;;;;;;;;;;;-1.64;43.71;93299.13;2064113;69;20046;-69
2022/03/02 03:51:59;;;;;;;;;;;;;;;-1.39;42.67;93299.13;2051222;70;20747;-70
2022/03/02 03:54:25;;;;;;;;;;;;;;;-1.58;43.48;93296.31;2051321;69;20045;-69
2022/03/02 03:56:51;;;;;;;;;;;;;;;-1.66;44.67;93289.84;2062569;69;20058;-69
2022/03/02 03:59:16;;;;;;;;;;;;;;;-1.70;43.96;93290.13;2051725;70;20131;-70
2022/03/02 04:01:42;;;;;;;;;;;;;;;-1.50;43.40;93288.19;2051196;70;20047;-69
2022/03/02 04:04:07;;;;;;;;;;;;;;;-1.61;43.39;93287.03;2065688;69;20090;-68
2022/03/02 04:06:33;;;;;;;;;;;;;;;-1.51;43.51;93289.44;2051057;69;20045;-73
2022/03/02 04:08:58;;;;;;;;;;;;;;;-1.61;44.12;93297.34;2052069;70;20070;-73
2022/03/02 04:11:24;;;;;;;;;;;;;;;-1.68;43.65;93281.34;2051950;70;20432;-72
2022/03/02 04:13:49;;;;;;;;;;;;;;;-1.67;43.62;93291.88;2052030;70;20043;-71
2022/03/02 04:16:15;;;;;;;;;;;;;;;-1.74;43.79;93294.44;2052104;69;20053;-73
2022/03/02 04:18:41;;;;;;;;;;;;;;;-1.79;43.91;93293.22;2052000;70;20050;-70
2022/03/02 04:21:06;;;;;;;;;;;;;;;-1.85;45.72;93292.56;2051685;69;20050;-70
2022/03/02 04:23:32;;;;;;;;;;;;;;;-2.07;46.22;93285.97;2051079;70;20142;-69
2022/03/02 04:25:57;;;;;;;;;;;;;;;-1.88;45.11;93291.59;2050965;70;20126;-70
2022/03/02 04:28:23;;;;;;;;;;;;;;;-1.76;45.56;93285.94;2050491;70;20042;-70
2022/03/02 04:30:48;;;;;;;;;;;;;;;-1.71;44.94;93283.13;2051468;70;20065;-68
2022/03/02 04:33:14;;;;;;;;;;;;;;;-1.85;44.65;93276.00;2062873;69;20089;-70
2022/03/02 04:35:40;;;;;;;;;;;;;;;-1.73;44.48;93282.16;2051506;69;20050;-70
2022/03/02 04:38:06;;;;;;;;;;;;;;;-1.82;43.98;93272.94;2050865;69;20051;-73
2022/03/02 04:40:31;;;;;;;;;;;;;;;-1.72;43.83;93278.13;2050757;70;20077;-71
2022/03/02 04:42:57;;;;;;;;;;;;;;;-1.75;44.41;93265.34;2050530;69;20449;-68
2022/03/02 04:45:27;;;;;;;;;;;;;;;-1.78;44.83;93271.94;2051153;69;20066;-71
2022/03/02 04:47:54;;;;;;;;;;;;;;;-1.75;44.92;93263.34;2050464;69;20294;-69
2022/03/02 04:50:20;;;;;;;;;;;;;;;-1.88;45.54;93261.22;2051449;70;20098;-70
2022/03/02 04:52:46;;;;;;;;;;;;;;;-1.80;44.00;93256.59;2050737;70;20402;-69
2022/03/02 04:55:12;;;;;;;;;;;;;;;-1.81;44.61;93257.13;2050489;70;20049;-69
2022/03/02 04:58:10;;;;;;;;;;;;;;;-1.88;44.88;93244.66;2050783;70;20162;-70
2022/03/02 05:00:36;;;;;;;;;;;;;;;-1.64;43.57;93243.91;2052561;70;20078;-69
2022/03/02 05:03:03;;;;;;;;;;;;;;;-1.62;43.36;93235.09;2050018;70;20062;-71
2022/03/02 05:05:29;;;;;;;;;;;;;;;-2.35;46.62;93230.28;2053017;70;20066;-69
2022/03/02 05:07:55;;;;;;;;;;;;;;;-1.84;44.16;93231.31;2051625;69;20488;-70
2022/03/02 05:10:21;;;;;;;;;;;;;;;-1.82;44.64;93226.03;2040019;70;20531;-69
2022/03/02 05:12:47;;;;;;;;;;;;;;;-1.77;44.60;93241.03;2048908;69;20061;-71
2022/03/02 05:15:13;;;;;;;;;;;;;;;-1.98;45.39;93242.75;2049854;70;20418;-71
2022/03/02 05:17:40;;;;;;;;;;;;;;;-1.95;44.69;93248.00;2045625;70;20116;-69
2022/03/02 05:20:07;;;;;;;;;;;;;;;-1.87;44.93;93248.91;2052017;70;20514;-69
2022/03/02 05:22:32;;;;;;;;;;;;;;;-1.82;44.46;93247.38;2052166;70;20051;-74
2022/03/02 05:25:02;;;;;;;;;;;;;;;-1.77;44.17;93246.56;2049899;70;20088;-69
2022/03/02 05:27:28;;;;;;;;;;;;;;;-1.70;43.80;93236.94;2050181;70;20054;-69
2022/03/02 05:29:56;;;;;;;;;;;;;;;-1.88;44.23;93244.66;2047912;70;20056;-68
2022/03/02 05:32:25;;;;;;;;;;;;;;;-2.12;45.28;93233.59;2045316;70;20074;-73
2022/03/02 05:34:51;;;;;;;;;;;;;;;-1.99;44.86;93235.75;2047510;70;20151;-72
2022/03/02 05:37:16;;;;;;;;;;;;;;;-1.88;44.34;93230.09;2049629;70;20100;-72
2022/03/02 05:39:45;;;;;;;;;;;;;;;-1.95;44.66;93238.97;2062825;69;20046;-68
2022/03/02 05:42:11;;;;;;;;;;;;;;;-1.87;44.75;93234.38;2064395;69;20049;-68
2022/03/02 05:44:36;;;;;;;;;;;;;;;-1.98;45.01;93231.72;2050749;70;20445;-69
2022/03/02 05:47:02;;;;;;;;;;;;;;;-1.87;43.97;93231.63;2050794;70;20404;-69
2022/03/02 05:49:28;;;;;;;;;;;;;;;-1.91;44.23;93234.66;2051315;70;20142;-69
2022/03/02 05:51:56;;;;;;;;;;;;;;;-1.95;44.96;93236.94;2051424;69;20136;-69
2022/03/02 05:54:22;;;;;;;;;;;;;;;-2.10;44.97;93239.34;2050544;69;20438;-68
2022/03/02 05:56:47;;;;;;;;;;;;;;;-1.90;45.99;93244.41;2051439;70;20432;-68
2022/03/02 05:59:14;;;;;;;;;;;;;;;-1.99;45.22;93244.75;2052057;69;20089;-69
2022/03/02 06:01:40;;;;;;;;;;;;;;;-1.90;45.22;93244.41;2049546;69;20116;-68
2022/03/02 06:04:05;;;;;;;;;;;;;;;-1.80;43.56;93250.34;2050928;69;20046;-69
2022/03/02 06:06:35;;;;;;;;;;;;;;;-1.83;44.78;93254.91;2050945;69;20047;-72
2022/03/02 06:09:05;;;;;;;;;;;;;;;-1.93;45.24;93253.72;2050906;69;20138;-72
2022/03/02 06:11:30;;;;;;;;;;;;;;;-1.91;45.99;93248.44;2050929;70;20050;-74
2022/03/02 06:13:56;;;;;;;;;;;;;;;-1.74;43.32;93239.25;2050569;70;20070;-69
2022/03/02 06:16:21;;;;;;;;;;;;;;;-1.95;45.32;93248.00;2050726;70;20089;-68
2022/03/02 06:18:47;;;;;;;;;;;;;;;-1.99;46.03;93252.28;2050213;69;20050;-70
2022/03/02 06:21:22;;;;;;;;;;;;;;;-1.91;45.48;93256.00;2050534;69;20429;-68
2022/03/02 06:23:48;;;;;;;;;;;;;;;-1.89;46.01;93247.94;2050667;70;20059;-70
2022/03/02 06:26:14;;;;;;;;;;;;;;;-1.92;46.68;93252.47;2051277;70;20050;-69
2022/03/02 06:28:40;;;;;;;;;;;;;;;-1.91;45.64;93251.22;2051594;69;20091;-69
2022/03/02 06:31:05;;;;;;;;;;;;;;;-1.93;46.48;93250.22;2051445;69;20042;-69
2022/03/02 06:33:30;;;;;;;;;;;;;;;-1.94;46.10;93241.19;2050276;69;20425;-70
2022/03/02 06:35:56;;;;;;;;;;;;;;;-1.88;46.59;93238.38;2055371;69;20111;-70
2022/03/02 06:38:22;;;;;;;;;;;;;;;-2.00;47.44;93243.28;2058699;69;20055;-72
2022/03/02 06:40:53;;;;;;;;;;;;;;;-1.97;47.75;93242.25;2051366;70;20043;-69
2022/03/02 06:43:20;;;;;;;;;;;;;;;-1.97;46.85;93242.25;2063733;69;20058;-69
2022/03/02 06:45:58;;;;;;;;;;;;;;;-1.72;45.93;93231.19;2051875;69;20043;-69
2022/03/02 06:48:31;;;;;;;;;;;;;;;-1.63;45.58;93239.13;2050730;70;20058;-69
2022/03/02 06:50:59;;;;;;;;;;;;;;;-1.63;46.00;93236.38;2050967;70;20223;-70
2022/03/02 06:53:27;;;;;;;;;;;;;;;-1.51;44.69;93235.00;2063378;69;20062;-70
2022/03/02 06:55:53;;;;;;;;;;;;;;;-1.50;44.84;93241.25;2050741;69;20112;-71
2022/03/02 06:58:20;;;;;;;;;;;;;;;-1.33;43.85;93230.72;2063188;69;20124;-69
2022/03/02 07:00:51;;;;;;;;;;;;;;;-1.77;45.92;93240.28;2051047;70;20185;-69
2022/03/02 07:03:18;;;;;;;;;;;;;;;-1.63;45.54;93237.13;2049689;70;20097;-70
2022/03/02 07:05:46;;;;;;;;;;;;;;;-1.59;46.49;93228.56;2050634;69;20156;-69
2022/03/02 07:08:11;;;;;;;;;;;;;;;-1.56;46.13;93228.25;2051748;70;20495;-70
2022/03/02 07:10:37;;;;;;;;;;;;;;;-1.45;45.71;93230.13;2051906;69;20078;-70
2022/03/02 07:13:03;;;;;;;;;;;;;;;-1.36;45.18;93218.00;2050815;70;20558;-69
2022/03/02 07:15:33;;;;;;;;;;;;;;;-1.39;45.27;93221.78;2051704;70;20078;-70
2022/03/02 07:18:00;;;;;;;;;;;;;;;-1.35;45.30;93217.47;2051546;70;20086;-69
2022/03/02 07:20:29;;;;;;;;;;;;;;;-1.19;45.47;93223.28;2050104;70;20149;-69
2022/03/02 07:22:56;;;;;;;;;;;;;;;-1.26;46.31;93223.88;2051366;69;20074;-70
2022/03/02 07:25:33;;;;;;;;;;;;;;;-1.23;45.64;93226.38;2050069;69;20043;-70
2022/03/02 07:27:59;;;;;;;;;;;;;;;-1.15;45.17;93232.78;2051129;70;20058;-69
2022/03/02 07:30:25;;;;;;;;;;;;;;;-1.09;44.51;93229.97;2048930;69;20488;-68
2022/03/02 07:32:53;;;;;;;;;;;;;;;-1.03;43.82;93225.09;2049295;69;20057;-69
2022/03/02 07:35:19;;;;;;;;;;;;;;;-1.03;44.34;93219.56;2050720;69;20839;-70
2022/03/02 07:37:44;;;;;;;;;;;;;;;-0.92;43.96;93224.94;2049828;69;20416;-71
2022/03/02 07:40:10;;;;;;;;;;;;;;;-1.26;45.62;93229.41;2049437;70;20046;-68
2022/03/02 07:42:36;;;;;;;;;;;;;;;-0.97;43.80;93217.47;2050692;70;20098;-69
2022/03/02 07:45:03;;;;;;;;;;;;;;;-0.89;44.59;93220.38;2051406;69;20584;-69
2022/03/02 07:47:29;;;;;;;;;;;;;;;-0.87;44.60;93218.59;2049783;69;20070;-68
2022/03/02 07:49:54;;;;;;;;;;;;;;;-0.86;43.94;93216.56;2049349;70;20042;-70
2022/03/02 07:52:23;;;;;;;;;;;;;;;-0.86;44.75;93206.25;2049840;69;20643;-69
2022/03/02 07:54:52;;;;;;;;;;;;;;;-0.78;43.71;93206.38;2050187;69;20137;-70
2022/03/02 07:57:17;;;;;;;;;;;;;;;-0.81;44.02;93207.47;2049868;70;20549;-69
2022/03/02 07:59:44;;;;;;;;;;;;;;;-0.78;44.09;93198.88;2049841;69;20116;-70
2022/03/02 08:02:11;;;;;;;;;;;;;;;-0.65;43.78;93187.09;2050783;69;20062;-69
2022/03/02 08:04:37;;;;;;;;;;;;;;;-0.53;45.07;93193.94;2050504;70;20038;-71
2022/03/02 08:07:03;;;;;;;;;;;;;;;-0.37;44.61;93188.66;2050613;69;20054;-68
2022/03/02 08:09:31;;;;;;;;;;;;;;;-0.33;42.74;93181.53;2050429;70;20093;-70
2022/03/02 08:11:58;;;;;;;;;;;;;;;-0.06;39.92;93187.13;2050127;69;21314;-70
2022/03/02 08:14:24;;;;;;;;;;;;;;;-0.18;40.61;93185.81;2051004;69;20186;-69
2022/03/02 08:16:50;;;;;;;;;;;;;;;-0.09;41.49;93177.88;2050329;70;20102;-69
2022/03/02 08:19:15;;;;;;;;;;;;;;;0.19;40.19;93182.16;2050686;70;20051;-69
2022/03/02 08:21:42;;;;;;;;;;;;;;;0.52;40.20;93177.25;2062028;69;20183;-69
2022/03/02 08:24:09;;;;;;;;;;;;;;;0.77;40.19;93170.91;2050893;70;20063;-68
2022/03/02 08:26:37;;;;;;;;;;;;;;;1.12;40.72;93173.72;2050630;70;20098;-69
2022/03/02 08:29:04;;;;;;;;;;;;;;;1.20;41.32;93166.97;2049348;69;20485;-73
2022/03/02 08:31:30;;;;;;;;;;;;;;;1.63;40.31;93178.84;2048945;69;20126;-70
2022/03/02 08:33:57;;;;;;;;;;;;;;;1.71;39.24;93163.03;2050597;69;20042;-70
2022/03/02 08:36:23;;;;;;;;;;;;;;;2.24;39.06;93166.19;2065241;69;20413;-70
2022/03/02 08:38:52;;;;;;;;;;;;;;;2.82;38.71;93168.94;2052021;70;20245;-75
2022/03/02 08:41:18;;;;;;;;;;;;;;;3.49;39.89;93164.16;2052264;69;20082;-71
2022/03/02 08:43:44;;;;;;;;;;;;;;;4.08;36.60;93169.59;2052414;69;20055;-70
2022/03/02 08:46:10;;;;;;;;;;;;;;;4.29;35.33;93158.22;2052448;70;20430;-71
2022/03/02 08:48:35;;;;;;;;;;;;;;;4.39;35.57;93158.41;2052569;70;20401;-70
2022/03/02 08:51:01;;;;;;;;;;;;;;;4.70;34.16;93151.47;2065256;69;20050;-70
2022/03/02 08:53:27;;;;;;;;;;;;;;;5.07;32.66;93141.47;2052286;70;20134;-70
2022/03/02 08:55:53;;;;;;;;;;;;;;;5.22;31.08;93149.06;2052525;70;20050;-69
2022/03/02 08:58:19;;;;;;;;;;;;;;;5.44;31.79;93146.69;2064369;69;20102;-69
2022/03/02 09:00:45;;;;;;;;;;;;;;;5.01;31.86;93143.00;2065114;69;20051;-70
2022/03/02 09:03:14;;;;;;;;;;;;;;;6.04;32.20;93139.25;2052199;70;20075;-71
2022/03/02 09:05:41;;;;;;;;;;;;;;;6.83;31.08;93142.25;2052461;69;20073;-70
2022/03/02 09:08:06;;;;;;;;;;;;;;;6.97;30.07;93142.66;2052471;69;20047;-73
2022/03/02 09:10:32;;;;;;;;;;;;;;;7.13;30.22;93130.69;2052044;70;20043;-74
2022/03/02 09:12:59;;;;;;;;;;;;;;;8.10;30.19;93122.06;2065190;69;20053;-68
2022/03/02 09:15:26;;;;;;;;;;;;;;;7.90;28.22;93124.81;2052291;69;20050;-71
2022/03/02 09:17:51;;;;;;;;;;;;;;;8.31;29.63;93122.31;2052335;69;20124;-71
2022/03/02 09:20:17;;;;;;;;;;;;;;;8.65;27.00;93115.75;2052590;70;20567;-70
2022/03/02 09:22:43;;;;;;;;;;;;;;;8.58;27.04;93111.00;2052371;69;20054;-71
2022/03/02 09:25:09;;;;;;;;;;;;;;;8.76;26.45;93103.22;2052271;70;20314;-70
2022/03/02 09:27:35;;;;;;;;;;;;;;;8.61;26.40;93103.47;2062517;69;20141;-72
2022/03/02 09:30:03;;;;;;;;;;;;;;;9.49;24.74;93107.03;2052193;69;20042;-69
2022/03/02 09:32:30;;;;;;;;;;;;;;;9.87;24.63;93094.91;2052428;70;20043;-70
2022/03/02 09:34:57;;;;;;;;;;;;;;;9.33;22.90;93090.47;2065354;69;20047;-71
2022/03/02 09:37:24;;;;;;;;;;;;;;;8.37;21.95;93089.09;2052382;69;20042;-73
2022/03/02 09:39:50;;;;;;;;;;;;;;;9.17;23.26;93086.50;2052090;70;20135;-72
2022/03/02 09:42:19;;;;;;;;;;;;;;;10.13;24.02;93090.38;2052340;70;20054;-71
2022/03/02 09:44:46;;;;;;;;;;;;;;;10.85;21.42;93085.38;2052577;70;20090;-69
2022/03/02 09:47:20;;;;;;;;;;;;;;;11.31;21.86;93072.81;2052738;69;20504;-72
2022/03/02 09:49:52;;;;;;;;;;;;;;;11.38;22.69;93071.16;2052437;69;20047;-74
2022/03/02 09:52:21;;;;;;;;;;;;;;;11.71;21.43;93065.47;2052246;70;20417;-70
2022/03/02 09:54:51;;;;;;;;;;;;;;;12.29;21.79;93059.16;2052137;70;20170;-70
2022/03/02 09:57:18;;;;;;;;;;;;;;;12.13;21.93;93055.34;2052201;69;20043;-70
2022/03/02 09:59:48;;;;;;;;;;;;;;;12.52;20.50;93060.50;2052410;70;20135;-70
2022/03/02 10:02:18;;;;;;;;;;;;;;;12.27;21.91;93050.56;2052166;70;20047;-71
2022/03/02 10:04:48;;;;;;;;;;;;;;;13.58;20.07;93049.59;2052423;70;20042;-71
2022/03/02 10:07:27;;;;;;;;;;;;;;;13.44;19.17;93041.78;2052442;70;20508;-71
2022/03/02 10:10:04;;;;;;;;;;;;;;;13.64;18.30;93033.69;2052184;70;20057;-72
2022/03/02 10:12:31;;;;;;;;;;;;;;;13.98;18.79;93028.44;2052203;70;20120;-73
2022/03/02 10:14:58;;;;;;;;;;;;;;;13.47;19.72;93026.41;2051940;69;20050;-73
2022/03/02 10:17:26;;;;;;;;;;;;;;;12.44;18.64;93026.84;2052278;69;20038;-70
2022/03/02 10:19:53;;;;;;;;;;;;;;;11.49;18.78;93011.22;2052388;70;20045;-71
2022/03/02 10:22:33;;;;;;;;;;;;;;;13.41;18.20;93016.84;2052094;70;20133;-70
2022/03/02 10:25:04;;;;;;;;;;;;;;;12.44;17.61;93007.09;2052132;69;20481;-70
2022/03/02 10:27:43;;;;;;;;;;;;;;;14.12;17.68;93008.63;2052132;70;20566;-70
2022/03/02 10:30:09;;;;;;;;;;;;;;;14.30;16.89;93000.38;2052418;70;20547;-71
2022/03/02 10:32:35;;;;;;;;;;;;;;;15.11;18.20;93001.63;2052154;70;20050;-71
2022/03/02 10:35:12;;;;;;;;;;;;;;;14.68;17.07;92982.50;2052153;69;20057;-73
2022/03/02 10:37:44;;;;;;;;;;;;;;;13.87;17.33;92976.19;2052270;70;20046;-73
2022/03/02 10:40:15;;;;;;;;;;;;;;;15.39;17.79;92978.81;2052039;69;20046;-74
2022/03/02 10:42:44;;;;;;;;;;;;;;;15.44;17.34;92975.56;2052211;70;20147;-71
2022/03/02 10:45:13;;;;;;;;;;;;;;;15.54;15.97;92974.56;2052169;69;20058;-72
2022/03/02 10:47:46;;;;;;;;;;;;;;;14.03;15.70;92965.00;2052160;69;20078;-73
2022/03/02 10:50:11;;;;;;;;;;;;;;;15.52;15.79;92964.56;2052275;70;20111;-70
2022/03/02 10:52:38;;;;;;;;;;;;;;;16.09;14.91;92963.63;2052121;70;20047;-70
2022/03/02 10:55:08;;;;;;;;;;;;;;;16.85;15.93;92961.94;2052186;70;20057;-69
2022/03/02 10:57:34;;;;;;;;;;;;;;;15.89;14.39;92963.44;2052070;70;20078;-70
2022/03/02 11:00:04;;;;;;;;;;;;;;;17.82;15.71;92961.53;2052269;70;20162;-72
2022/03/02 11:02:34;;;;;;;;;;;;;;;18.10;13.58;92955.44;2051603;69;20050;-70
2022/03/02 11:05:02;;;;;;;;;;;;;;;19.45;14.15;92958.72;2051750;70;20589;-69
2022/03/02 11:07:28;;;;;;;;;;;;;;;19.19;13.41;92943.56;2051835;69;20151;-71
2022/03/02 11:09:54;;;;;;;;;;;;;;;19.41;12.17;92955.00;2052060;70;20150;-71
2022/03/02 11:12:20;;;;;;;;;;;;;;;18.21;13.45;92943.06;2052085;70;20070;-70
2022/03/02 11:15:02;;;;;;;;;;;;;;;20.58;13.58;92936.38;2052121;70;20550;-71
2022/03/02 11:17:28;;;;;;;;;;;;;;;19.14;11.77;92934.16;2051849;70;20062;-71
2022/03/02 11:19:54;;;;;;;;;;;;;;;21.08;13.25;92939.13;2052182;69;20379;-71
2022/03/02 11:22:22;;;;;;;;;;;;;;;22.63;12.10;92928.31;2052084;70;20422;-71
2022/03/02 11:24:52;;;;;;;;;;;;;;;24.44;11.18;92934.19;2051993;70;20042;-73
2022/03/02 11:27:38;;;;;;;;;;;;;;;22.72;10.95;92929.91;2051910;70;20082;-72
2022/03/02 11:30:03;;;;;;;;;;;;;;;25.66;10.92;92923.22;2052091;70;20042;-72
2022/03/02 11:32:31;;;;;;;;;;;;;;;25.17;9.38;92913.44;2052041;70;20070;-71
2022/03/02 11:34:57;;;;;;;;;;;;;;;22.04;11.42;92905.59;2051936;70;20043;-71
2022/03/02 11:37:24;;;;;;;;;;;;;;;23.43;11.01;92902.50;2051976;69;20076;-71
2022/03/02 11:39:49;;;;;;;;;;;;;;;24.37;11.39;92892.38;2051853;70;20149;-71
2022/03/02 11:42:15;;;;;;;;;;;;;;;24.54;10.30;92891.13;2052164;70;20057;-73
2022/03/02 11:44:41;;;;;;;;;;;;;;;25.57;10.40;92887.13;2051849;70;20226;-71
2022/03/02 11:47:11;;;;;;;;;;;;;;;26.68;10.27;92880.56;2052043;70;20126;-71
2022/03/02 11:49:38;;;;;;;;;;;;;;;26.86;9.03;92880.63;2051397;70;20111;-70
2022/03/02 11:52:09;;;;;;;;;;;;;;;26.28;10.04;92875.34;2050930;70;20085;-71
2022/03/02 11:54:45;;;;;;;;;;;;;;;26.40;10.43;92863.13;2050718;70;20053;-71
2022/03/02 11:57:10;;;;;;;;;;;;;;;25.07;9.25;92850.66;2051012;70;20109;-70
2022/03/02 11:59:38;;;;;;;;;;;;;;;23.56;9.83;92840.94;2051415;70;20491;-72
2022/03/02 12:02:21;;;;;;;;;;;;;;;24.17;9.19;92831.69;2051503;70;20085;-73
2022/03/02 12:05:03;;;;;;;;;;;;;;;26.59;9.26;92833.63;2061396;69;20143;-71
2022/03/02 12:07:43;;;;;;;;;;;;;;;26.41;9.81;92829.94;2047858;69;20059;-72
2022/03/02 12:10:16;;;;;;;;;;;;;;;27.49;8.95;92833.78;2048183;69;20058;-71
2022/03/02 12:12:41;;;;;;;;;;;;;;;26.65;9.19;92830.03;2048925;70;20070;-72
2022/03/02 12:15:07;;;;;;;;;;;;;;;25.80;9.57;92822.44;2051636;70;20116;-70
2022/03/02 12:17:33;;;;;;;;;;;;;;;28.10;8.84;92816.34;2051506;70;20050;-72
2022/03/02 12:20:08;;;;;;;;;;;;;;;27.45;8.55;92819.31;2051338;70;20046;-72
2022/03/02 12:22:37;;;;;;;;;;;;;;;27.14;8.54;92821.50;2052094;70;20475;-72
2022/03/02 12:25:04;;;;;;;;;;;;;;;26.95;9.07;92820.00;2051297;69;20047;-73
2022/03/02 12:27:30;;;;;;;;;;;;;;;25.78;9.20;92810.88;2052264;69;20101;-73
2022/03/02 12:29:59;;;;;;;;;;;;;;;26.39;9.81;92816.22;2052372;70;20488;-75
2022/03/02 12:32:28;;;;;;;;;;;;;;;26.06;10.32;92804.53;2052244;69;20053;-74
2022/03/02 12:34:54;;;;;;;;;;;;;;;23.86;10.91;92808.28;2052390;69;20112;-76
2022/03/02 12:37:20;;;;;;;;;;;;;;;25.76;10.24;92796.47;2052399;69;20074;-77
2022/03/02 12:39:50;;;;;;;;;;;;;;;27.19;9.67;92794.03;2052150;70;20591;-72
2022/03/02 12:42:16;;;;;;;;;;;;;;;24.72;10.28;92789.88;2052264;70;20058;-74
2022/03/02 12:44:56;;;;;;;;;;;;;;;23.45;10.13;92784.00;2051981;69;20223;-70
2022/03/02 12:47:26;;;;;;;;;;;;;;;23.10;10.43;92788.53;2052262;69;20183;-71